Latest Coastal Weather Observations for Marion Reef

IDQ60701

Issued at 6:02 pm EST Friday 24 March 2017 (issued every 10 minutes, with the page automatically refreshed every 10 minutes)

About coastal observations | Map of coastal stations | Coastal observations for QLD | Marine services | Other Formats
Station Details ID: 200704 Name: MARION REEF Lat: -19.10 Lon: 152.39 Height: 2.0 m
Data from the previous 72 hours. | See also: Recent months for locations in Queensland
Date/Time
EST
Temp
°C
Wind Pressure Rain since
9am
mm
Weather Cloud Vis
km
Sea
Height
m
Swell
Dir  Spd
kts
Gust
kts
hPa Trend Height
m
Period
s
Dir
24/06:00pm 27.7 E 26 32 1005.2 - - - - - - - - -
24/05:30pm 27.6 E 26 31 1005.1 - - - - - - - - -
24/05:00pm 27.5 E 24 27 1004.8 - - - - - - - - -
24/04:30pm 27.7 E 22 24 1004.8 - - - - - - - - -
24/04:00pm 27.2 E 23 27 1004.7 - - - - - - - - -
24/03:30pm 27.3 E 20 24 1004.8 - - - - - - - - -
24/03:00pm 27.4 E 21 23 1004.8 - - - - - - - - -
24/02:30pm 26.5 E 23 29 1005.4 - - - - - - - - -
24/02:00pm 28.0 ESE 21 27 1005.5 - - - - - - - - -
24/01:30pm 28.2 ESE 24 30 1006.2 - - - - - - - - -
24/01:00pm 28.1 E 25 30 1006.2 - - - - - - - - -
24/12:30pm 28.0 E 24 28 1006.8 - - - - - - - - -
24/12:00pm 28.0 E 28 33 1007.2 - - - - - - - - -
24/11:30am 28.0 E 26 31 1007.9 - - - - - - - - -
24/11:00am 27.7 E 27 29 1008.0 - - - - - - - - -
24/10:30am 28.4 E 23 27 1008.4 - - - - - - - - -
24/10:00am 28.4 E 25 30 1008.4 - - - - - - - - -
24/09:30am 28.7 E 27 31 1008.6 - - - - - - - - -
24/09:00am 28.9 E 25 32 1008.7 - - - - - - - - -
24/08:30am 28.6 E 23 26 1008.9 - - - - - - - - -
24/08:00am 28.6 E 24 27 1008.7 - - - - - - - - -
24/07:30am 28.8 E 24 27 1008.5 - - - - - - - - -
24/07:00am 28.4 E 22 26 1008.1 - - - - - - - - -
24/06:30am 28.8 ESE 23 26 1008.0 - - - - - - - - -
24/06:00am 28.7 E 21 24 1007.8 - - - - - - - - -
24/05:30am 28.6 E 20 25 1007.7 - - - - - - - - -
24/05:00am 28.0 E 20 24 1007.5 - - - - - - - - -
24/04:40am 27.5 ENE 23 29 1007.6 - - - - - - - - -
24/04:30am 28.6 ESE 20 25 1007.4 - - - - - - - - -
24/04:00am 28.1 ESE 18 20 1007.3 - - - - - - - - -
24/03:30am 26.8 ESE 22 26 1007.6 - - - - - - - - -
24/03:00am 27.6 ESE 23 27 1007.8 - - - - - - - - -
24/02:30am 27.6 E 23 26 1007.9 - - - - - - - - -
24/02:00am 26.9 E 23 29 1008.2 - - - - - - - - -
24/01:31am 27.8 E 22 35 1008.7 - - - - - - - - -
24/01:30am 28.5 E 21 26 1008.8 - - - - - - - - -
24/01:00am 28.6 E 18 21 1009.0 - - - - - - - - -
24/12:30am 28.4 E 20 23 1009.2 - - - - - - - - -
24/12:00am 28.2 E 19 25 1009.5 - - - - - - - - -
 
Date/Time
EST
Temp
°C
Wind Pressure Rain since
9am
mm
Weather Cloud Vis
km
Sea
Height
m
Swell
Dir  Spd
kts
Gust
kts
hPa Trend Height
m
Period
s
Dir
23/11:50pm 27.7 ENE 22 24 1009.6 - - - - - - - - -
23/11:30pm 28.7 E 19 21 1009.7 - - - - - - - - -
23/11:00pm 29.0 E 20 24 1009.8 - - - - - - - - -
23/10:30pm 28.8 E 20 22 1010.1 - - - - - - - - -
23/10:00pm 28.9 E 20 22 1010.1 - - - - - - - - -
23/09:30pm 29.0 E 21 24 1010.6 - - - - - - - - -
23/09:00pm 29.1 E 20 23 1010.7 - - - - - - - - -
23/08:30pm 29.0 E 20 23 1010.7 - - - - - - - - -
23/08:00pm 29.1 E 20 23 1010.6 - - - - - - - - -
23/07:30pm 28.9 E 19 21 1010.4 - - - - - - - - -
23/07:00pm 28.9 E 20 22 1010.2 - - - - - - - - -
23/06:30pm 28.9 E 20 23 1010.0 - - - - - - - - -
23/06:00pm 29.1 E 19 22 1009.8 - - - - - - - - -
23/05:30pm 28.9 E 17 21 1009.6 - - - - - - - - -
23/05:00pm 29.1 E 17 21 1009.3 - - - - - - - - -
23/04:30pm 29.0 E 17 19 1009.0 - - - - - - - - -
23/04:00pm 29.1 E 17 20 1008.8 - - - - - - - - -
23/03:30pm 29.0 E 18 21 1008.8 - - - - - - - - -
23/03:00pm 28.9 E 19 21 1008.6 - - - - - - - - -
23/02:30pm 29.1 E 20 23 1009.0 - - - - - - - - -
23/02:00pm 29.1 E 19 23 1009.0 - - - - - - - - -
23/01:30pm 29.0 ENE 19 22 1009.2 - - - - - - - - -
23/01:00pm 29.1 E 20 22 1009.3 - - - - - - - - -
23/12:30pm 29.0 E 20 24 1009.9 - - - - - - - - -
23/12:00pm 29.1 ENE 20 24 1010.2 - - - - - - - - -
23/11:30am 29.0 ENE 21 25 1010.6 - - - - - - - - -
23/11:00am 28.2 E 19 21 1010.8 - - - - - - - - -
23/10:30am 29.2 ENE 18 21 1011.2 - - - - - - - - -
23/10:00am 29.1 ENE 20 23 1011.2 - - - - - - - - -
23/09:30am 28.9 E 18 22 1011.2 - - - - - - - - -
23/09:00am 29.1 ENE 19 22 1011.1 - - - - - - - - -
23/08:30am 29.1 ENE 21 24 1011.0 - - - - - - - - -
23/08:00am 28.8 ENE 22 25 1010.5 - - - - - - - - -
23/07:30am 28.7 ENE 23 26 1010.0 - - - - - - - - -
23/07:00am 28.8 ENE 21 24 1009.8 - - - - - - - - -
23/06:30am 28.6 ENE 22 26 1009.6 - - - - - - - - -
23/06:00am 28.7 ENE 22 25 1009.3 - - - - - - - - -
23/05:30am 28.6 ENE 21 25 1009.3 - - - - - - - - -
23/05:00am 28.6 ENE 22 25 1009.0 - - - - - - - - -
23/04:30am 28.6 ENE 20 23 1009.0 - - - - - - - - -
23/04:00am 28.7 ENE 20 24 1008.5 - - - - - - - - -
23/03:30am 28.6 ENE 22 25 1008.4 - - - - - - - - -
23/03:00am 28.6 ENE 21 25 1008.3 - - - - - - - - -
23/02:30am 28.0 ENE 17 20 1008.4 - - - - - - - - -
23/02:00am 27.9 NE 17 19 1008.5 - - - - - - - - -
23/01:30am 27.6 NE 19 22 1009.2 - - - - - - - - -
23/01:00am 27.6 NE 17 20 1009.3 - - - - - - - - -
23/12:30am 27.9 ENE 17 20 1009.6 - - - - - - - - -
23/12:00am 27.5 ENE 18 20 1009.7 - - - - - - - - -
 
Date/Time
EST
Temp
°C
Wind Pressure Rain since
9am
mm
Weather Cloud Vis
km
Sea
Height
m
Swell
Dir  Spd
kts
Gust
kts
hPa Trend Height
m
Period
s
Dir
22/11:30pm 27.3 ENE 21 24 1009.9 - - - - - - - - -
22/11:00pm 27.1 ENE 19 23 1010.0 - - - - - - - - -
22/10:30pm 27.2 ENE 20 24 1010.4 - - - - - - - - -
22/10:00pm 27.1 ENE 19 22 1010.4 - - - - - - - - -
22/09:30pm 27.1 E 19 21 1010.5 - - - - - - - - -
22/09:00pm 26.8 E 18 20 1010.4 - - - - - - - - -
22/08:30pm 26.6 E 16 18 1010.5 - - - - - - - - -
22/08:00pm 26.7 E 16 18 1010.4 - - - - - - - - -
22/07:30pm 26.0 E 11 14 1010.9 - - - - - - - - -
22/07:00pm 25.7 ENE 12 15 1010.7 - - - - - - - - -
22/06:30pm 26.0 ENE 13 15 1010.6 - - - - - - - - -
22/06:00pm 25.9 ENE 15 18 1010.4 - - - - - - - - -
22/05:30pm 26.2 ENE 16 19 1010.1 - - - - - - - - -
22/05:00pm 25.9 ENE 16 18 1009.6 - - - - - - - - -
22/04:30pm 26.1 ENE 17 19 1009.8 - - - - - - - - -
22/04:00pm 26.6 ENE 16 19 1009.5 - - - - - - - - -
22/03:30pm 27.2 E 12 14 1009.4 - - - - - - - - -
22/03:00pm 27.2 ENE 12 15 1009.1 - - - - - - - - -
22/02:30pm 26.9 ENE 13 15 1008.8 - - - - - - - - -
22/02:00pm 26.6 E 16 19 1009.1 - - - - - - - - -
22/01:30pm 26.3 ENE 19 22 1009.5 - - - - - - - - -
22/01:00pm 26.2 ENE 22 26 1009.6 - - - - - - - - -
22/12:30pm 28.2 E 15 18 1009.8 - - - - - - - - -
22/12:00pm 28.2 ENE 15 18 1010.1 - - - - - - - - -
22/11:30am 27.9 ENE 18 21 1010.8 - - - - - - - - -
22/11:00am 27.7 ENE 18 20 1010.5 - - - - - - - - -
22/10:30am 27.4 ENE 18 21 1010.7 - - - - - - - - -
22/10:00am 27.5 NE 17 21 1010.9 - - - - - - - - -
22/09:30am 27.8 NE 19 21 1011.0 - - - - - - - - -
22/09:00am 27.8 NE 20 26 1010.8 - - - - - - - - -
22/08:30am 27.4 ENE 19 24 1010.7 - - - - - - - - -
22/08:00am 27.0 ENE 23 27 1010.7 - - - - - - - - -
22/07:55am 26.5 ENE 24 27 1010.7 - - - - - - - - -
22/07:30am 27.6 NNE 19 24 1010.2 - - - - - - - - -
22/07:00am 28.4 NE 15 17 1010.0 - - - - - - - - -
22/06:30am 28.0 NE 16 18 1009.6 - - - - - - - - -
22/06:00am 27.9 NE 17 20 1009.4 - - - - - - - - -
22/05:30am 27.9 NE 20 22 1009.1 - - - - - - - - -
22/05:00am 27.6 NNE 20 25 1008.8 - - - - - - - - -
22/04:30am 28.4 NE 18 21 1008.5 - - - - - - - - -
22/04:00am 28.4 NE 19 22 1008.2 - - - - - - - - -
22/03:30am 28.3 NE 17 19 1008.3 - - - - - - - - -
22/03:00am 28.3 NE 17 21 1008.2 - - - - - - - - -
22/02:30am 27.9 NNE 14 20 1008.4 - - - - - - - - -
22/02:00am 28.2 NE 17 20 1008.6 - - - - - - - - -
22/01:30am 28.3 NE 16 18 1009.1 - - - - - - - - -
22/01:00am 28.2 NE 16 19 1009.3 - - - - - - - - -
22/12:30am 28.3 NE 16 20 1009.7 - - - - - - - - -
22/12:00am 28.3 NE 18 22 1010.0 - - - - - - - - -
 
Date/Time
EST
Temp
°C
Wind Pressure Rain since
9am
mm
Weather Cloud Vis
km
Sea
Height
m
Swell
Dir  Spd
kts
Gust
kts
hPa Trend Height
m
Period
s
Dir
21/11:30pm 28.1 NE 18 19 1010.3 - - - - - - - - -
21/11:00pm 28.2 NE 17 20 1010.3 - - - - - - - - -
21/10:30pm 28.4 NE 17 21 1010.5 - - - - - - - - -
21/10:00pm 28.5 NE 17 20 1010.6 - - - - - - - - -
21/09:30pm 28.4 NE 18 21 1010.5 - - - - - - - - -
21/09:00pm 28.4 NE 16 17 1010.5 - - - - - - - - -
21/08:30pm 28.1 NE 17 20 1010.4 - - - - - - - - -
21/08:00pm 27.5 ENE 19 27 1010.3 - - - - - - - - -
21/07:45pm 27.8 ENE 17 28 1010.2 - - - - - - - - -
21/07:30pm 28.6 ENE 16 19 1010.1 - - - - - - - - -
21/07:00pm 28.6 ENE 16 19 1009.8 - - - - - - - - -
21/06:30pm 28.6 ENE 18 21 1009.7 - - - - - - - - -

Other Formats:

Comma delimited format used in spreadsheet applications
http://www.bom.gov.au/fwo/IDQ60701/IDQ60701.94298.axf

JavaScript Object Notation format (JSON) in row-major order
http://www.bom.gov.au/fwo/IDQ60701/IDQ60701.94298.json